Rapid City, SD

5:59 PM MST on November 25, 2014 (GMT -0700)
Custer County | Change Station
CLOSE
Current Station
Airport
Location: Custer,
Elevation: 5600 ft
Nearby Weather Stations
Active Advisory: Wind Advisory Active Notice: Record Report

Elev 5600 ft 43.73 °N, 103.62 °W | Updated 6 minutes ago

Mostly Cloudy
Mostly Cloudy
27 °F
Feels Like 20 °F
N
6
Wind Variable Wind from NW

Today
High -- | Low -- °F
--% Chance of Precip.
Yesterday
High -- | Low -- °F
Precip. -- in
7:00 AM 4:18 PM
Waxing Crescent, 15% visible
Pressure 29.98 in
Visibility 2.5 miles
Clouds Overcast 2800 ft
Windchill 20 °F
Dew Point 21 °F
Humidity 78%
Rainfall 0.00 in
Snow Depth Not available.
UV 0 out of 12
Pollen .10 out of 12
Air Quality Not available.
Flu Activity Not available.
METAR KCUT 260053Z AUTO 31005KT 2 1/2SM -SN OVC028 M03/M06 A2985 RMK AO2 SNB37 SLP151 P0000 T10281061

More Conditions Fewer Conditions

Pressure 29.98 in
Visibility 2.5 miles
Clouds Overcast 2800 ft
Windchill 20 °F
Dew Point 21 °F
Humidity 78%
Rainfall 0.00 in
Snow Depth Not available.
UV 0 out of 12
Pollen .10 out of 12
Air Quality Not available.
Flu Activity Not available.
METAR KCUT 260053Z AUTO 31005KT 2 1/2SM -SN OVC028 M03/M06 A2985 RMK AO2 SNB37 SLP151 P0000 T10281061

More Conditions Fewer Conditions

10-Day Weather Forecast

Almanac

Astronomy

Nov. 25, 2014 Rise Set
Actual Time
Civil Twilight
Nautical Twilight
Astronomical Twilight
Moon
Length of Visible Light
Length of Day
Tomorrow will be .
, % of the Moon is Illuminated

Today's Extremes

State Highs State Lows

Community

WunderPhotos

Upload Photos

1,773,629 photos uploaded!

WunderBlogs® & News

Nearby

Air Quality

  Air Quality AQ Index Pollutant
Not available.

Snow Depth

Station Depth Elevation

Earthquake Activity

City Distance Mag. Time & Date
Minimum magnitude displayed is 2.5.

Coastal Water Temperatures

Place Temperature

Nearby Weather Stations